sensor_id;sensor_type;location;lat;lon;timestamp;pressure;altitude;pressure_sealevel;temperature;humidity
1832;BME280;1680;48.106;11.708;2023-03-01T00:01:38;96046.56;;;1.99;90.44
1832;BME280;1680;48.106;11.708;2023-03-01T00:04:06;96065.31;;;2.17;89.55
1832;BME280;1680;48.106;11.708;2023-03-01T00:06:34;96049.81;;;2.17;88.99
1832;BME280;1680;48.106;11.708;2023-03-01T00:09:03;96057.25;;;2.12;89.68
1832;BME280;1680;48.106;11.708;2023-03-01T00:11:31;96062.41;;;2.12;89.70
1832;BME280;1680;48.106;11.708;2023-03-01T00:14:00;96054.97;;;2.09;90.17
1832;BME280;1680;48.106;11.708;2023-03-01T00:16:31;96056.91;;;1.99;90.95
1832;BME280;1680;48.106;11.708;2023-03-01T00:18:59;96046.72;;;2.14;89.67
1832;BME280;1680;48.106;11.708;2023-03-01T00:21:27;96054.66;;;2.20;89.48
1832;BME280;1680;48.106;11.708;2023-03-01T00:23:56;96050.50;;;2.27;88.13
1832;BME280;1680;48.106;11.708;2023-03-01T00:26:25;96055.81;;;2.18;88.79
1832;BME280;1680;48.106;11.708;2023-03-01T00:28:53;96057.72;;;2.16;88.86
1832;BME280;1680;48.106;11.708;2023-03-01T00:31:23;96060.16;;;2.17;89.04
1832;BME280;1680;48.106;11.708;2023-03-01T00:33:52;96049.81;;;2.17;88.51
1832;BME280;1680;48.106;11.708;2023-03-01T00:36:23;96045.31;;;2.35;87.86
1832;BME280;1680;48.106;11.708;2023-03-01T00:38:51;96047.25;;;2.25;87.54
1832;BME280;1680;48.106;11.708;2023-03-01T00:41:20;96043.38;;;2.29;87.10
1832;BME280;1680;48.106;11.708;2023-03-01T00:43:49;96050.44;;;2.11;88.27
1832;BME280;1680;48.106;11.708;2023-03-01T00:46:18;96040.09;;;2.11;88.75
1832;BME280;1680;48.106;11.708;2023-03-01T00:48:46;96001.88;;;1.82;89.44
1832;BME280;1680;48.106;11.708;2023-03-01T00:51:15;96034.94;;;2.11;89.15
1832;BME280;1680;48.106;11.708;2023-03-01T00:53:43;96008.72;;;2.06;88.46
1832;BME280;1680;48.106;11.708;2023-03-01T00:56:13;96024.91;;;2.08;88.64
1832;BME280;1680;48.106;11.708;2023-03-01T00:58:42;96019.41;;;2.11;87.90
1832;BME280;1680;48.106;11.708;2023-03-01T01:01:10;96025.38;;;2.12;88.22
1832;BME280;1680;48.106;11.708;2023-03-01T01:03:46;96016.00;;;2.03;89.62
1832;BME280;1680;48.106;11.708;2023-03-01T01:06:16;96015.81;;;1.96;90.44
1832;BME280;1680;48.106;11.708;2023-03-01T01:08:43;96019.72;;;2.08;90.56
1832;BME280;1680;48.106;11.708;2023-03-01T01:11:11;96017.47;;;2.13;89.82
1832;BME280;1680;48.106;11.708;2023-03-01T01:13:39;95987.22;;;1.90;90.08
1832;BME280;1680;48.106;11.708;2023-03-01T01:16:08;96001.28;;;2.03;89.67
1832;BME280;1680;48.106;11.708;2023-03-01T01:18:35;95992.06;;;2.01;89.14
1832;BME280;1680;48.106;11.708;2023-03-01T01:21:05;95976.06;;;1.97;88.92
1832;BME280;1680;48.106;11.708;2023-03-01T01:23:32;95998.56;;;2.05;88.17
1832;BME280;1680;48.106;11.708;2023-03-01T01:26:03;95987.88;;;1.92;88.54
1832;BME280;1680;48.106;11.708;2023-03-01T01:28:31;96000.97;;;2.06;89.99
1832;BME280;1680;48.106;11.708;2023-03-01T01:30:59;95998.72;;;2.11;89.47
1832;BME280;1680;48.106;11.708;2023-03-01T01:33:27;95986.59;;;2.12;88.72
1832;BME280;1680;48.106;11.708;2023-03-01T01:35:55;95991.28;;;2.08;88.72
1832;BME280;1680;48.106;11.708;2023-03-01T01:38:22;95992.38;;;1.98;89.68
1832;BME280;1680;48.106;11.708;2023-03-01T01:40:50;95984.47;;;1.99;89.15
1832;BME280;1680;48.106;11.708;2023-03-01T01:43:20;95981.56;;;1.87;90.26
1832;BME280;1680;48.106;11.708;2023-03-01T01:45:49;95972.66;;;1.89;89.99
1832;BME280;1680;48.106;11.708;2023-03-01T01:48:19;95974.59;;;1.95;89.56
1832;BME280;1680;48.106;11.708;2023-03-01T01:50:53;95972.00;;;1.95;89.38
1832;BME280;1680;48.106;11.708;2023-03-01T01:53:23;95970.56;;;1.85;89.55
1832;BME280;1680;48.106;11.708;2023-03-01T01:55:56;95976.69;;;1.91;90.15
1832;BME280;1680;48.106;11.708;2023-03-01T01:58:27;95956.81;;;1.84;89.97
1832;BME280;1680;48.106;11.708;2023-03-01T02:00:56;95961.50;;;1.88;88.87
1832;BME280;1680;48.106;11.708;2023-03-01T02:03:27;95960.22;;;1.85;89.00
1832;BME280;1680;48.106;11.708;2023-03-01T02:06:04;95958.63;;;1.99;88.44
1832;BME280;1680;48.106;11.708;2023-03-01T02:08:36;95956.50;;;1.95;88.89
1832;BME280;1680;48.106;11.708;2023-03-01T02:11:04;95954.09;;;1.86;89.53
1832;BME280;1680;48.106;11.708;2023-03-01T02:13:33;95953.28;;;1.93;89.40
1832;BME280;1680;48.106;11.708;2023-03-01T02:16:03;95900.00;;;1.43;89.88
1832;BME280;1680;48.106;11.708;2023-03-01T02:18:30;95962.31;;;1.89;89.51
1832;BME280;1680;48.106;11.708;2023-03-01T02:21:11;95950.84;;;1.84;90.09
1832;BME280;1680;48.106;11.708;2023-03-01T02:23:41;95950.84;;;1.91;90.14
1832;BME280;1680;48.106;11.708;2023-03-01T02:26:16;95944.19;;;1.81;89.37
1832;BME280;1680;48.106;11.708;2023-03-01T02:28:48;95946.63;;;1.83;88.65
1832;BME280;1680;48.106;11.708;2023-03-01T02:31:17;95943.41;;;1.96;87.76
1832;BME280;1680;48.106;11.708;2023-03-01T02:34:16;95924.31;;;1.66;89.07
1832;BME280;1680;48.106;11.708;2023-03-01T02:36:46;95945.50;;;1.85;88.33
1832;BME280;1680;48.106;11.708;2023-03-01T02:39:18;95942.44;;;1.89;88.71
1832;BME280;1680;48.106;11.708;2023-03-01T02:41:49;95943.06;;;1.76;89.29
1832;BME280;1680;48.106;11.708;2023-03-01T02:44:19;95948.25;;;1.91;88.33
1832;BME280;1680;48.106;11.708;2023-03-01T02:46:48;95941.16;;;1.86;88.56
1832;BME280;1680;48.106;11.708;2023-03-01T02:49:19;95940.19;;;1.87;88.27
1832;BME280;1680;48.106;11.708;2023-03-01T02:51:56;95940.16;;;1.79;89.05
1832;BME280;1680;48.106;11.708;2023-03-01T02:54:29;95939.84;;;1.82;88.72
1832;BME280;1680;48.106;11.708;2023-03-01T02:57:00;95920.13;;;1.81;87.10
1832;BME280;1680;48.106;11.708;2023-03-01T02:59:31;95938.06;;;1.82;87.17
1832;BME280;1680;48.106;11.708;2023-03-01T03:02:00;95878.38;;;1.36;88.74
1832;BME280;1680;48.106;11.708;2023-03-01T03:04:28;95932.84;;;1.66;89.12
1832;BME280;1680;48.106;11.708;2023-03-01T03:06:55;95937.19;;;1.58;89.90
1832;BME280;1680;48.106;11.708;2023-03-01T03:09:22;95937.06;;;1.67;89.39
1832;BME280;1680;48.106;11.708;2023-03-01T03:11:49;95940.00;;;1.72;88.88
1832;BME280;1680;48.106;11.708;2023-03-01T03:14:17;95939.81;;;1.74;89.19
1832;BME280;1680;48.106;11.708;2023-03-01T03:16:46;95940.78;;;1.73;89.13
1832;BME280;1680;48.106;11.708;2023-03-01T03:19:14;95937.56;;;1.79;87.59
1832;BME280;1680;48.106;11.708;2023-03-01T03:21:42;95912.84;;;1.60;88.73
1832;BME280;1680;48.106;11.708;2023-03-01T03:24:09;95939.19;;;1.72;88.54
1832;BME280;1680;48.106;11.708;2023-03-01T03:26:37;95932.06;;;1.74;88.44
1832;BME280;1680;48.106;11.708;2023-03-01T03:29:04;95935.16;;;1.77;87.98
1832;BME280;1680;48.106;11.708;2023-03-01T03:31:31;95927.41;;;1.77;87.43
1832;BME280;1680;48.106;11.708;2023-03-01T03:34:00;95934.66;;;1.74;87.79
1832;BME280;1680;48.106;11.708;2023-03-01T03:36:27;95923.66;;;1.64;87.62
1832;BME280;1680;48.106;11.708;2023-03-01T03:38:55;95920.91;;;1.57;87.71
1832;BME280;1680;48.106;11.708;2023-03-01T03:41:22;95937.84;;;1.60;87.76
1832;BME280;1680;48.106;11.708;2023-03-01T03:43:49;95925.75;;;1.60;87.61
1832;BME280;1680;48.106;11.708;2023-03-01T03:46:17;95922.34;;;1.52;88.66
1832;BME280;1680;48.106;11.708;2023-03-01T03:48:45;95893.22;;;1.34;88.44
1832;BME280;1680;48.106;11.708;2023-03-01T03:51:15;95919.59;;;1.53;88.62
1832;BME280;1680;48.106;11.708;2023-03-01T03:53:44;95915.25;;;1.62;87.71
1832;BME280;1680;48.106;11.708;2023-03-01T03:56:12;95910.41;;;1.67;87.13
1832;BME280;1680;48.106;11.708;2023-03-01T03:58:39;95907.19;;;1.57;87.68
1832;BME280;1680;48.106;11.708;2023-03-01T04:01:06;95905.56;;;1.64;88.15
1832;BME280;1680;48.106;11.708;2023-03-01T04:03:34;95880.66;;;1.39;88.57
1832;BME280;1680;48.106;11.708;2023-03-01T04:06:02;95899.72;;;1.54;88.49
1832;BME280;1680;48.106;11.708;2023-03-01T04:08:32;95905.84;;;1.45;88.30
1832;BME280;1680;48.106;11.708;2023-03-01T04:11:01;95906.19;;;1.42;88.61
1832;BME280;1680;48.106;11.708;2023-03-01T04:13:51;95908.09;;;1.48;87.49
1832;BME280;1680;48.106;11.708;2023-03-01T04:16:19;95904.22;;;1.44;87.67
1832;BME280;1680;48.106;11.708;2023-03-01T04:18:47;95904.88;;;1.38;88.41
1832;BME280;1680;48.106;11.708;2023-03-01T04:21:14;95906.63;;;1.37;87.58
1832;BME280;1680;48.106;11.708;2023-03-01T04:23:43;95897.13;;;1.38;87.30
1832;BME280;1680;48.106;11.708;2023-03-01T04:26:10;95904.69;;;1.31;87.77
1832;BME280;1680;48.106;11.708;2023-03-01T04:28:39;95889.97;;;1.24;87.78
1832;BME280;1680;48.106;11.708;2023-03-01T04:31:10;95901.28;;;1.31;87.85
1832;BME280;1680;48.106;11.708;2023-03-01T04:33:43;95904.63;;;1.15;87.67
1832;BME280;1680;48.106;11.708;2023-03-01T04:36:12;95895.75;;;1.18;88.66
1832;BME280;1680;48.106;11.708;2023-03-01T04:38:43;95894.47;;;1.22;88.57
1832;BME280;1680;48.106;11.708;2023-03-01T04:41:14;95890.94;;;1.23;88.82
1832;BME280;1680;48.106;11.708;2023-03-01T04:43:42;95901.22;;;1.15;88.76
1832;BME280;1680;48.106;11.708;2023-03-01T04:46:12;95892.88;;;1.21;88.55
1832;BME280;1680;48.106;11.708;2023-03-01T04:48:41;95898.22;;;1.27;88.33
1832;BME280;1680;48.106;11.708;2023-03-01T04:51:09;95893.34;;;1.24;88.73
1832;BME280;1680;48.106;11.708;2023-03-01T04:53:39;95883.19;;;1.31;88.83
1832;BME280;1680;48.106;11.708;2023-03-01T04:56:08;95895.50;;;1.37;88.47
1832;BME280;1680;48.106;11.708;2023-03-01T04:58:35;95900.00;;;1.35;88.73
1832;BME280;1680;48.106;11.708;2023-03-01T05:01:08;95891.28;;;1.36;87.91
1832;BME280;1680;48.106;11.708;2023-03-01T05:03:42;95888.53;;;1.37;88.25
1832;BME280;1680;48.106;11.708;2023-03-01T05:06:10;95892.25;;;1.43;87.27
1832;BME280;1680;48.106;11.708;2023-03-01T05:08:37;95893.53;;;1.31;88.01
1832;BME280;1680;48.106;11.708;2023-03-01T05:11:05;95884.75;;;1.16;88.19
1832;BME280;1680;48.106;11.708;2023-03-01T05:13:36;95890.63;;;1.26;87.83
1832;BME280;1680;48.106;11.708;2023-03-01T05:16:05;95889.16;;;1.23;87.14
1832;BME280;1680;48.106;11.708;2023-03-01T05:18:36;95885.47;;;1.26;86.66
1832;BME280;1680;48.106;11.708;2023-03-01T05:21:06;95888.00;;;1.10;88.30
1832;BME280;1680;48.106;11.708;2023-03-01T05:23:34;95847.41;;;0.87;88.94
1832;BME280;1680;48.106;11.708;2023-03-01T05:26:03;95888.94;;;1.09;88.94
1832;BME280;1680;48.106;11.708;2023-03-01T05:28:31;95887.03;;;1.11;88.42
1832;BME280;1680;48.106;11.708;2023-03-01T05:31:00;95892.78;;;0.97;88.32
1832;BME280;1680;48.106;11.708;2023-03-01T05:33:28;95882.91;;;0.93;89.12
1832;BME280;1680;48.106;11.708;2023-03-01T05:35:59;95871.91;;;0.83;89.40
1832;BME280;1680;48.106;11.708;2023-03-01T05:38:27;95880.78;;;0.88;89.88
1832;BME280;1680;48.106;11.708;2023-03-01T05:40:54;95867.22;;;0.86;90.55
1832;BME280;1680;48.106;11.708;2023-03-01T05:43:21;95877.13;;;0.98;89.34
1832;BME280;1680;48.106;11.708;2023-03-01T05:45:49;95876.28;;;0.90;89.47
1832;BME280;1680;48.106;11.708;2023-03-01T05:48:17;95870.47;;;0.88;90.59
1832;BME280;1680;48.106;11.708;2023-03-01T05:50:46;95874.06;;;1.03;89.67
1832;BME280;1680;48.106;11.708;2023-03-01T05:53:16;95844.75;;;0.71;89.56
1832;BME280;1680;48.106;11.708;2023-03-01T05:55:45;95866.19;;;1.04;88.74
1832;BME280;1680;48.106;11.708;2023-03-01T05:58:14;95875.31;;;0.91;89.56
1832;BME280;1680;48.106;11.708;2023-03-01T06:00:41;95855.94;;;0.79;89.62
1832;BME280;1680;48.106;11.708;2023-03-01T06:03:10;95877.84;;;0.83;90.60
1832;BME280;1680;48.106;11.708;2023-03-01T06:05:40;95883.69;;;0.85;89.51
1832;BME280;1680;48.106;11.708;2023-03-01T06:08:09;95876.94;;;0.92;89.42
1832;BME280;1680;48.106;11.708;2023-03-01T06:10:36;95890.00;;;0.91;89.23
1832;BME280;1680;48.106;11.708;2023-03-01T06:13:04;95898.50;;;0.83;89.25
1832;BME280;1680;48.106;11.708;2023-03-01T06:15:32;95888.19;;;0.83;89.49
1832;BME280;1680;48.106;11.708;2023-03-01T06:17:59;95885.66;;;0.91;89.29
1832;BME280;1680;48.106;11.708;2023-03-01T06:20:28;95891.22;;;0.79;89.77
1832;BME280;1680;48.106;11.708;2023-03-01T06:22:57;95891.19;;;1.04;89.73
1832;BME280;1680;48.106;11.708;2023-03-01T06:25:26;95886.69;;;1.14;88.19
1832;BME280;1680;48.106;11.708;2023-03-01T06:27:53;95896.66;;;1.01;89.31
1832;BME280;1680;48.106;11.708;2023-03-01T06:30:22;95888.94;;;1.09;88.58
1832;BME280;1680;48.106;11.708;2023-03-01T06:32:49;95892.75;;;0.89;89.41
1832;BME280;1680;48.106;11.708;2023-03-01T06:35:18;95890.22;;;1.05;88.16
1832;BME280;1680;48.106;11.708;2023-03-01T06:37:46;95883.09;;;0.99;89.51
1832;BME280;1680;48.106;11.708;2023-03-01T06:40:15;95888.88;;;0.93;89.85
1832;BME280;1680;48.106;11.708;2023-03-01T06:42:47;95884.75;;;1.08;89.26
1832;BME280;1680;48.106;11.708;2023-03-01T06:45:15;95886.06;;;1.12;88.88
1832;BME280;1680;48.106;11.708;2023-03-01T06:47:42;95883.16;;;1.15;88.29
1832;BME280;1680;48.106;11.708;2023-03-01T06:50:10;95888.00;;;1.18;88.65
1832;BME280;1680;48.106;11.708;2023-03-01T06:52:38;95885.41;;;1.18;88.76
1832;BME280;1680;48.106;11.708;2023-03-01T06:55:06;95891.22;;;1.12;88.68
1832;BME280;1680;48.106;11.708;2023-03-01T06:57:35;95892.19;;;1.11;88.48
1832;BME280;1680;48.106;11.708;2023-03-01T07:00:03;95882.84;;;1.18;88.24
1832;BME280;1680;48.106;11.708;2023-03-01T07:02:30;95891.91;;;1.22;88.27
1832;BME280;1680;48.106;11.708;2023-03-01T07:04:57;95886.09;;;1.28;88.11
1832;BME280;1680;48.106;11.708;2023-03-01T07:07:24;95892.50;;;1.16;88.77
1832;BME280;1680;48.106;11.708;2023-03-01T07:09:51;95894.13;;;1.09;88.94
1832;BME280;1680;48.106;11.708;2023-03-01T07:12:19;95891.25;;;1.20;88.27
1832;BME280;1680;48.106;11.708;2023-03-01T07:14:48;95886.25;;;1.26;88.18
1832;BME280;1680;48.106;11.708;2023-03-01T07:17:15;95880.28;;;1.26;88.51
1832;BME280;1680;48.106;11.708;2023-03-01T07:19:42;95869.97;;;1.26;88.18
1832;BME280;1680;48.106;11.708;2023-03-01T07:22:10;95877.53;;;1.27;88.61
1832;BME280;1680;48.106;11.708;2023-03-01T07:24:37;95880.13;;;1.35;87.83
1832;BME280;1680;48.106;11.708;2023-03-01T07:27:04;95877.59;;;1.43;87.52
1832;BME280;1680;48.106;11.708;2023-03-01T07:29:31;95876.75;;;1.35;88.34
1832;BME280;1680;48.106;11.708;2023-03-01T07:32:03;95859.28;;;1.21;86.78
1832;BME280;1680;48.106;11.708;2023-03-01T07:34:31;95872.59;;;1.42;88.07
1832;BME280;1680;48.106;11.708;2023-03-01T07:36:58;95882.78;;;1.59;87.00
1832;BME280;1680;48.106;11.708;2023-03-01T07:39:25;95876.16;;;1.57;87.34
1832;BME280;1680;48.106;11.708;2023-03-01T07:41:53;95854.00;;;1.54;86.55
1832;BME280;1680;48.106;11.708;2023-03-01T07:44:20;95878.44;;;1.68;86.87
1832;BME280;1680;48.106;11.708;2023-03-01T07:46:47;95862.63;;;1.71;87.02
1832;BME280;1680;48.106;11.708;2023-03-01T07:49:16;95862.75;;;1.69;86.15
1832;BME280;1680;48.106;11.708;2023-03-01T07:51:43;95861.63;;;1.56;86.95
1832;BME280;1680;48.106;11.708;2023-03-01T07:54:10;95861.00;;;1.78;86.13
1832;BME280;1680;48.106;11.708;2023-03-01T07:56:37;95871.50;;;1.76;85.75
1832;BME280;1680;48.106;11.708;2023-03-01T07:59:05;95876.19;;;1.96;87.56
1832;BME280;1680;48.106;11.708;2023-03-01T08:01:33;95868.44;;;1.96;84.39
1832;BME280;1680;48.106;11.708;2023-03-01T08:04:00;95872.94;;;1.94;84.81
1832;BME280;1680;48.106;11.708;2023-03-01T08:06:29;95867.47;;;1.97;84.80
1832;BME280;1680;48.106;11.708;2023-03-01T08:08:56;95868.94;;;1.92;83.93
1832;BME280;1680;48.106;11.708;2023-03-01T08:11:23;95859.38;;;1.92;84.34
1832;BME280;1680;48.106;11.708;2023-03-01T08:13:53;95866.16;;;1.93;85.25
1832;BME280;1680;48.106;11.708;2023-03-01T08:16:21;95861.97;;;1.85;84.83
1832;BME280;1680;48.106;11.708;2023-03-01T08:18:49;95849.84;;;1.93;85.20
1832;BME280;1680;48.106;11.708;2023-03-01T08:21:17;95851.63;;;2.00;84.84
1832;BME280;1680;48.106;11.708;2023-03-01T08:23:46;95859.38;;;2.08;84.40
1832;BME280;1680;48.106;11.708;2023-03-01T08:26:15;95863.91;;;2.14;83.64
1832;BME280;1680;48.106;11.708;2023-03-01T08:28:44;95866.00;;;2.03;83.77
1832;BME280;1680;48.106;11.708;2023-03-01T08:31:17;95863.41;;;1.95;84.61
1832;BME280;1680;48.106;11.708;2023-03-01T08:33:45;95855.19;;;1.99;83.89
1832;BME280;1680;48.106;11.708;2023-03-01T08:36:16;95855.47;;;2.28;83.26
1832;BME280;1680;48.106;11.708;2023-03-01T08:38:43;95844.78;;;2.39;82.63
1832;BME280;1680;48.106;11.708;2023-03-01T08:41:13;95846.72;;;2.45;81.92
1832;BME280;1680;48.106;11.708;2023-03-01T08:43:40;95839.56;;;2.47;82.22
1832;BME280;1680;48.106;11.708;2023-03-01T08:46:07;95842.16;;;2.55;81.26
1832;BME280;1680;48.106;11.708;2023-03-01T08:48:35;95826.53;;;2.25;82.83
1832;BME280;1680;48.106;11.708;2023-03-01T08:51:09;95832.16;;;2.36;83.12
1832;BME280;1680;48.106;11.708;2023-03-01T08:53:37;95838.97;;;2.21;83.66
1832;BME280;1680;48.106;11.708;2023-03-01T08:56:04;95822.81;;;2.27;82.95
1832;BME280;1680;48.106;11.708;2023-03-01T08:58:33;95844.47;;;2.18;82.92
1832;BME280;1680;48.106;11.708;2023-03-01T09:01:01;95831.22;;;2.29;82.92
1832;BME280;1680;48.106;11.708;2023-03-01T09:03:28;95837.03;;;2.31;83.21
1832;BME280;1680;48.106;11.708;2023-03-01T09:06:00;95835.41;;;2.46;83.00
1832;BME280;1680;48.106;11.708;2023-03-01T09:08:27;95828.53;;;2.69;81.87
1832;BME280;1680;48.106;11.708;2023-03-01T09:10:55;95834.28;;;2.79;81.93
1832;BME280;1680;48.106;11.708;2023-03-01T09:13:22;95830.75;;;2.80;81.20
1832;BME280;1680;48.106;11.708;2023-03-01T09:15:51;95828.28;;;2.86;79.19
1832;BME280;1680;48.106;11.708;2023-03-01T09:18:18;95833.97;;;2.82;79.34
1832;BME280;1680;48.106;11.708;2023-03-01T09:20:46;95823.53;;;2.98;79.65
1832;BME280;1680;48.106;11.708;2023-03-01T09:23:13;95823.69;;;3.04;80.28
1832;BME280;1680;48.106;11.708;2023-03-01T09:25:40;95819.97;;;3.07;78.52
1832;BME280;1680;48.106;11.708;2023-03-01T09:28:07;95819.66;;;2.94;78.82
1832;BME280;1680;48.106;11.708;2023-03-01T09:30:36;95819.97;;;3.07;78.80
1832;BME280;1680;48.106;11.708;2023-03-01T09:33:05;95815.91;;;3.04;80.10
1832;BME280;1680;48.106;11.708;2023-03-01T09:35:32;95822.94;;;3.26;78.76
1832;BME280;1680;48.106;11.708;2023-03-01T09:37:59;95817.25;;;3.23;79.54
1832;BME280;1680;48.106;11.708;2023-03-01T09:40:28;95821.56;;;3.38;78.92
1832;BME280;1680;48.106;11.708;2023-03-01T09:43:00;95807.28;;;3.42;78.80
1832;BME280;1680;48.106;11.708;2023-03-01T09:45:33;95807.13;;;3.13;79.68
1832;BME280;1680;48.106;11.708;2023-03-01T09:48:02;95818.66;;;3.33;79.00
1832;BME280;1680;48.106;11.708;2023-03-01T09:50:35;95819.38;;;3.50;78.44
1832;BME280;1680;48.106;11.708;2023-03-01T09:53:07;95824.91;;;3.47;78.63
1832;BME280;1680;48.106;11.708;2023-03-01T09:55:39;95813.22;;;3.51;79.35
1832;BME280;1680;48.106;11.708;2023-03-01T09:58:29;95811.13;;;3.69;78.50
1832;BME280;1680;48.106;11.708;2023-03-01T10:01:00;95821.75;;;3.82;78.27
1832;BME280;1680;48.106;11.708;2023-03-01T10:03:34;95811.41;;;3.74;77.99
1832;BME280;1680;48.106;11.708;2023-03-01T10:06:09;95760.03;;;3.55;79.51
1832;BME280;1680;48.106;11.708;2023-03-01T10:08:42;95816.81;;;3.86;77.96
1832;BME280;1680;48.106;11.708;2023-03-01T10:11:20;95804.25;;;4.12;77.24
1832;BME280;1680;48.106;11.708;2023-03-01T10:13:54;95812.59;;;5.79;95.01
1832;BME280;1680;48.106;11.708;2023-03-01T10:16:30;95806.63;;;5.44;72.29
1832;BME280;1680;48.106;11.708;2023-03-01T10:19:02;95801.72;;;4.99;72.37
1832;BME280;1680;48.106;11.708;2023-03-01T10:21:38;95790.97;;;4.44;75.07
1832;BME280;1680;48.106;11.708;2023-03-01T10:24:12;95794.81;;;4.48;74.78
1832;BME280;1680;48.106;11.708;2023-03-01T10:26:47;95801.81;;;4.48;75.40
1832;BME280;1680;48.106;11.708;2023-03-01T10:29:15;95800.38;;;4.45;74.63
1832;BME280;1680;48.106;11.708;2023-03-01T10:31:43;95799.69;;;4.14;75.50
1832;BME280;1680;48.106;11.708;2023-03-01T10:34:14;95797.88;;;4.00;75.98
1832;BME280;1680;48.106;11.708;2023-03-01T10:36:47;95798.03;;;3.84;76.00
1832;BME280;1680;48.106;11.708;2023-03-01T10:39:17;95790.13;;;3.78;78.10
1832;BME280;1680;48.106;11.708;2023-03-01T10:41:54;95789.56;;;3.90;77.49
1832;BME280;1680;48.106;11.708;2023-03-01T10:44:43;95788.63;;;4.20;74.70
1832;BME280;1680;48.106;11.708;2023-03-01T10:47:16;95780.66;;;4.51;74.93
1832;BME280;1680;48.106;11.708;2023-03-01T10:49:53;95777.38;;;4.57;75.27
1832;BME280;1680;48.106;11.708;2023-03-01T10:52:24;95768.41;;;4.59;76.05
1832;BME280;1680;48.106;11.708;2023-03-01T10:54:54;95770.19;;;4.44;73.24
1832;BME280;1680;48.106;11.708;2023-03-01T10:57:30;95754.25;;;4.18;74.71
1832;BME280;1680;48.106;11.708;2023-03-01T11:00:14;95749.78;;;4.12;75.04
1832;BME280;1680;48.106;11.708;2023-03-01T11:02:43;95743.06;;;3.89;75.15
1832;BME280;1680;48.106;11.708;2023-03-01T11:05:18;95747.16;;;3.98;75.72
1832;BME280;1680;48.106;11.708;2023-03-01T11:07:52;95741.91;;;4.20;76.14
1832;BME280;1680;48.106;11.708;2023-03-01T11:10:22;95730.34;;;4.23;74.93
1832;BME280;1680;48.106;11.708;2023-03-01T11:12:51;95731.72;;;4.19;75.56
1832;BME280;1680;48.106;11.708;2023-03-01T11:15:24;95719.63;;;4.11;75.82
1832;BME280;1680;48.106;11.708;2023-03-01T11:17:53;95710.97;;;4.19;75.38
1832;BME280;1680;48.106;11.708;2023-03-01T11:20:25;95709.69;;;4.15;75.87
1832;BME280;1680;48.106;11.708;2023-03-01T11:22:57;95704.97;;;4.04;75.81
1832;BME280;1680;48.106;11.708;2023-03-01T11:25:27;95702.97;;;4.20;74.77
1832;BME280;1680;48.106;11.708;2023-03-01T11:27:57;95690.53;;;4.30;74.67
1832;BME280;1680;48.106;11.708;2023-03-01T11:30:28;95686.44;;;4.21;76.02
1832;BME280;1680;48.106;11.708;2023-03-01T11:33:10;95693.84;;;4.53;75.28
1832;BME280;1680;48.106;11.708;2023-03-01T11:35:42;95695.19;;;4.49;74.99
1832;BME280;1680;48.106;11.708;2023-03-01T11:38:28;95689.97;;;4.64;75.67
1832;BME280;1680;48.106;11.708;2023-03-01T11:41:01;95687.38;;;4.49;75.23
1832;BME280;1680;48.106;11.708;2023-03-01T11:43:36;95690.50;;;4.59;75.59
1832;BME280;1680;48.106;11.708;2023-03-01T11:49:25;95680.84;;;4.88;74.94
1832;BME280;1680;48.106;11.708;2023-03-01T11:52:06;95671.81;;;4.84;74.50
1832;BME280;1680;48.106;11.708;2023-03-01T11:54:47;95668.78;;;5.02;74.17
1832;BME280;1680;48.106;11.708;2023-03-01T11:57:32;95671.09;;;5.11;73.99
1832;BME280;1680;48.106;11.708;2023-03-01T12:00:16;95675.78;;;5.43;72.90
1832;BME280;1680;48.106;11.708;2023-03-01T12:03:18;95672.25;;;5.51;71.95
1832;BME280;1680;48.106;11.708;2023-03-01T12:08:49;95651.94;;;5.61;72.32
1832;BME280;1680;48.106;11.708;2023-03-01T12:11:32;95649.34;;;5.61;72.04
1832;BME280;1680;48.106;11.708;2023-03-01T12:14:16;95640.66;;;5.54;72.51
1832;BME280;1680;48.106;11.708;2023-03-01T12:17:01;95650.22;;;5.74;72.08
1832;BME280;1680;48.106;11.708;2023-03-01T12:19:41;95645.31;;;5.85;71.64
1832;BME280;1680;48.106;11.708;2023-03-01T12:22:23;95632.94;;;5.87;69.81
1832;BME280;1680;48.106;11.708;2023-03-01T12:25:08;95634.75;;;5.93;70.82
1832;BME280;1680;48.106;11.708;2023-03-01T12:30:40;95623.69;;;5.58;71.15
1832;BME280;1680;48.106;11.708;2023-03-01T12:33:17;95616.88;;;5.57;71.38
1832;BME280;1680;48.106;11.708;2023-03-01T12:45:50;95623.66;;;5.78;72.48
1832;BME280;1680;48.106;11.708;2023-03-01T12:48:31;95616.47;;;5.80;71.54
1832;BME280;1680;48.106;11.708;2023-03-01T12:51:07;95613.16;;;5.72;71.17
1832;BME280;1680;48.106;11.708;2023-03-01T12:53:37;95618.69;;;5.83;70.39
1832;BME280;1680;48.106;11.708;2023-03-01T12:56:10;95586.06;;;5.81;71.32
1832;BME280;1680;48.106;11.708;2023-03-01T12:58:41;95614.16;;;5.98;71.84
1832;BME280;1680;48.106;11.708;2023-03-01T13:01:22;95626.47;;;6.11;71.71
1832;BME280;1680;48.106;11.708;2023-03-01T13:04:02;95605.59;;;6.04;69.48
1832;BME280;1680;48.106;11.708;2023-03-01T13:06:41;95609.44;;;6.15;69.95
1832;BME280;1680;48.106;11.708;2023-03-01T13:09:20;95612.69;;;6.23;70.17
1832;BME280;1680;48.106;11.708;2023-03-01T13:11:49;95608.69;;;6.27;69.87
1832;BME280;1680;48.106;11.708;2023-03-01T13:14:45;95603.34;;;6.35;70.77
1832;BME280;1680;48.106;11.708;2023-03-01T13:17:40;95616.44;;;6.55;70.18
1832;BME280;1680;48.106;11.708;2023-03-01T13:20:13;95611.59;;;6.52;70.77
1832;BME280;1680;48.106;11.708;2023-03-01T13:22:41;95608.22;;;6.58;70.57
1832;BME280;1680;48.106;11.708;2023-03-01T13:25:14;95606.03;;;6.68;70.07
1832;BME280;1680;48.106;11.708;2023-03-01T13:27:42;95597.81;;;6.58;69.90
1832;BME280;1680;48.106;11.708;2023-03-01T13:30:40;95601.25;;;6.77;68.41
1832;BME280;1680;48.106;11.708;2023-03-01T13:33:43;95590.38;;;6.48;69.65
1832;BME280;1680;48.106;11.708;2023-03-01T13:36:13;95586.50;;;6.31;71.29
1832;BME280;1680;48.106;11.708;2023-03-01T13:39:02;95588.28;;;6.37;70.81
1832;BME280;1680;48.106;11.708;2023-03-01T13:41:50;95589.31;;;6.36;70.96
1832;BME280;1680;48.106;11.708;2023-03-01T13:44:25;95597.22;;;6.62;68.99
1832;BME280;1680;48.106;11.708;2023-03-01T13:46:56;95599.25;;;6.79;69.21
1832;BME280;1680;48.106;11.708;2023-03-01T13:49:29;95580.84;;;6.81;68.20
1832;BME280;1680;48.106;11.708;2023-03-01T13:52:01;95580.16;;;6.60;70.64
1832;BME280;1680;48.106;11.708;2023-03-01T13:54:31;95573.78;;;6.69;70.51
1832;BME280;1680;48.106;11.708;2023-03-01T13:57:00;95576.41;;;6.88;70.17
1832;BME280;1680;48.106;11.708;2023-03-01T13:59:28;95574.03;;;6.86;69.02
1832;BME280;1680;48.106;11.708;2023-03-01T14:01:56;95573.59;;;6.83;67.69